Time;durP1;ratioP1;P1;durP2;ratioP2;P2;SDS_P1;SDS_P2;PMS_P1;PMS_P2;Temp;Humidity;BMP_temperature;BMP_pressure;BME280_temperature;BME280_humidity;BME280_pressure;Samples;Min_cycle;Max_cycle;Signal;HPM_P1;HPM_P2
2023/10/27 00:00:43;;;;;;;0.70;0.70;;;10.00;99.90;;;;;;5074456;28;20441;-82
2023/10/27 00:03:09;;;;;;;5.83;0.90;;;9.90;99.90;;;;;;5075529;28;20460;-82
2023/10/27 00:05:37;;;;;;;0.57;0.57;;;10.00;99.90;;;;;;5075469;28;20818;-82
2023/10/27 00:08:04;;;;;;;0.70;0.40;;;10.00;99.90;;;;;;5075316;28;20965;-82
2023/10/27 00:10:31;;;;;;;1.40;1.10;;;10.00;99.90;;;;;;5075504;28;20445;-82
2023/10/27 00:12:58;;;;;;;0.50;0.50;;;10.00;99.90;;;;;;5075082;28;20819;-82
2023/10/27 00:15:25;;;;;;;0.80;0.80;;;10.00;99.90;;;;;;5075409;28;20805;-82
2023/10/27 00:17:52;;;;;;;0.40;0.40;;;10.10;99.90;;;;;;5075073;28;20437;-82
2023/10/27 00:20:18;;;;;;;0.80;0.50;;;10.10;99.90;;;;;;5075295;28;20445;-82
2023/10/27 00:22:46;;;;;;;2.70;0.93;;;10.10;99.90;;;;;;5075183;28;20449;-82
2023/10/27 00:25:13;;;;;;;0.73;0.73;;;10.00;99.90;;;;;;5075219;28;20441;-82
2023/10/27 00:27:40;;;;;;;0.40;0.40;;;10.10;99.90;;;;;;5074784;28;20477;-82
2023/10/27 00:30:09;;;;;;;1.27;0.60;;;10.00;99.90;;;;;;5075113;28;20451;-82
2023/10/27 00:32:36;;;;;;;3.30;0.50;;;10.00;99.90;;;;;;5075087;28;20484;-82
2023/10/27 00:35:04;;;;;;;1.33;0.60;;;10.00;99.90;;;;;;5075002;28;20460;-82
2023/10/27 00:37:32;;;;;;;0.77;0.50;;;9.90;99.90;;;;;;5074997;28;20452;-82
2023/10/27 00:40:01;;;;;;;4.30;0.40;;;10.00;99.90;;;;;;5074943;28;20440;-82
2023/10/27 00:42:27;;;;;;;0.50;0.47;;;9.90;99.90;;;;;;5074529;28;20460;-82
2023/10/27 00:44:54;;;;;;;0.50;0.50;;;9.90;99.90;;;;;;5074546;28;20837;-82
2023/10/27 00:47:21;;;;;;;1.50;0.57;;;9.80;99.90;;;;;;5074719;28;20487;-82
2023/10/27 00:49:48;;;;;;;0.50;0.50;;;9.70;99.90;;;;;;5074402;28;20980;-82
2023/10/27 00:52:16;;;;;;;1.00;1.00;;;9.80;99.90;;;;;;5074216;28;20480;-82
2023/10/27 00:54:47;;;;;;;0.93;0.90;;;9.70;99.90;;;;;;5074540;28;20491;-82
2023/10/27 00:57:16;;;;;;;0.43;0.43;;;9.70;99.90;;;;;;5074348;28;20422;-82
2023/10/27 00:59:43;;;;;;;0.70;0.50;;;9.70;99.90;;;;;;5074488;28;20801;-82
2023/10/27 01:02:10;;;;;;;0.50;0.50;;;9.60;99.90;;;;;;5074531;28;20445;-82
2023/10/27 01:04:37;;;;;;;0.43;0.43;;;9.60;99.90;;;;;;5074353;28;20461;-82
2023/10/27 01:07:04;;;;;;;0.87;0.40;;;9.70;99.90;;;;;;5074274;28;20558;-82
2023/10/27 01:09:31;;;;;;;1.60;0.60;;;9.70;99.90;;;;;;5074317;28;20444;-82
2023/10/27 01:11:58;;;;;;;1.70;0.70;;;9.70;99.90;;;;;;5074025;28;20456;-82
2023/10/27 01:14:27;;;;;;;3.53;0.80;;;9.70;99.90;;;;;;5074176;28;20844;-82
2023/10/27 01:16:54;;;;;;;0.50;0.50;;;9.70;99.90;;;;;;5074144;28;20448;-82
2023/10/27 01:19:20;;;;;;;1.70;0.63;;;9.70;99.90;;;;;;5074133;28;20536;-82
2023/10/27 01:21:47;;;;;;;0.37;0.33;;;9.60;99.90;;;;;;5074093;28;20456;-82
2023/10/27 01:24:15;;;;;;;2.77;0.70;;;9.70;99.90;;;;;;5073997;28;20543;-82
2023/10/27 01:26:42;;;;;;;0.63;0.40;;;9.70;99.90;;;;;;5073943;28;20490;-82
2023/10/27 01:29:09;;;;;;;0.40;0.40;;;9.80;99.90;;;;;;5073662;28;20967;-82
2023/10/27 01:31:35;;;;;;;0.73;0.50;;;9.70;99.90;;;;;;5073889;28;20456;-82
2023/10/27 01:34:02;;;;;;;0.60;0.60;;;9.70;99.90;;;;;;5073810;28;20461;-82
2023/10/27 01:36:29;;;;;;;0.60;0.40;;;9.70;99.90;;;;;;5073844;28;20429;-82
2023/10/27 01:38:56;;;;;;;2.20;0.70;;;9.60;99.90;;;;;;5073503;28;20944;-82
2023/10/27 01:41:24;;;;;;;0.60;0.47;;;9.60;99.90;;;;;;5073773;28;20448;-82
2023/10/27 01:43:51;;;;;;;0.40;0.30;;;9.40;99.90;;;;;;5073658;28;20465;-82
2023/10/27 01:46:17;;;;;;;2.30;0.93;;;9.40;99.90;;;;;;5073648;28;20440;-82
2023/10/27 01:48:44;;;;;;;1.40;0.60;;;9.50;99.90;;;;;;5073652;28;20835;-82
2023/10/27 01:51:11;;;;;;;0.90;0.90;;;9.60;99.90;;;;;;5073143;28;20477;-81
2023/10/27 01:53:39;;;;;;;0.60;0.40;;;9.60;99.90;;;;;;5073622;28;20464;-82
2023/10/27 01:56:07;;;;;;;0.73;0.40;;;9.60;99.90;;;;;;5073538;28;20437;-82
2023/10/27 01:58:39;;;;;;;0.43;0.43;;;9.60;99.90;;;;;;5073736;28;20514;-82
2023/10/27 02:01:06;;;;;;;0.50;0.43;;;9.50;99.90;;;;;;5073515;28;20436;-82
2023/10/27 02:03:33;;;;;;;0.50;0.50;;;9.40;99.90;;;;;;5073409;28;20471;-82
2023/10/27 02:06:00;;;;;;;0.50;0.50;;;9.40;99.90;;;;;;5073414;28;20494;-82
2023/10/27 02:08:27;;;;;;;0.40;0.40;;;9.40;99.90;;;;;;5073323;28;20541;-82
2023/10/27 02:10:54;;;;;;;0.60;0.43;;;9.50;99.90;;;;;;5073085;28;20449;-82
2023/10/27 02:13:20;;;;;;;0.40;0.30;;;9.50;99.90;;;;;;5073287;28;20464;-82
2023/10/27 02:15:49;;;;;;;1.07;0.50;;;9.40;99.90;;;;;;5073017;28;20946;-82
2023/10/27 02:18:15;;;;;;;0.40;0.40;;;9.40;99.90;;;;;;5072944;28;20818;-82
2023/10/27 02:20:42;;;;;;;0.57;0.53;;;9.40;99.90;;;;;;5072922;28;20926;-82
2023/10/27 02:23:09;;;;;;;1.67;0.40;;;9.40;99.90;;;;;;5073081;28;20471;-82
2023/10/27 02:25:36;;;;;;;1.43;0.50;;;9.30;99.90;;;;;;5072612;28;20440;-81
2023/10/27 02:28:03;;;;;;;0.50;0.40;;;9.30;99.90;;;;;;5073171;28;20485;-81
2023/10/27 02:30:29;;;;;;;0.30;0.30;;;9.30;99.90;;;;;;5073138;28;20452;-81
2023/10/27 02:32:57;;;;;;;0.30;0.30;;;9.40;99.90;;;;;;5073149;28;20441;-81
2023/10/27 02:35:25;;;;;;;5.43;0.70;;;9.30;99.90;;;;;;5073124;28;20456;-82
2023/10/27 02:37:52;;;;;;;0.83;0.33;;;9.40;99.90;;;;;;5073117;28;20440;-81
2023/10/27 02:40:19;;;;;;;0.40;0.40;;;9.40;99.90;;;;;;5073082;28;20441;-82
2023/10/27 02:42:45;;;;;;;1.97;0.70;;;9.30;99.90;;;;;;5072676;28;20954;-82
2023/10/27 02:45:12;;;;;;;5.30;0.40;;;9.30;99.90;;;;;;5073044;28;20444;-82
2023/10/27 02:47:39;;;;;;;0.40;0.40;;;9.30;99.90;;;;;;5072950;28;20487;-82
2023/10/27 02:50:08;;;;;;;0.40;0.40;;;9.30;99.90;;;;;;5072770;28;20456;-82
2023/10/27 02:52:35;;;;;;;0.40;0.33;;;9.40;99.90;;;;;;5072994;28;20475;-82
2023/10/27 02:55:01;;;;;;;0.40;0.37;;;9.40;99.90;;;;;;5072918;28;20469;-81
2023/10/27 02:57:28;;;;;;;0.50;0.50;;;9.40;99.90;;;;;;5072921;28;20448;-82
2023/10/27 02:59:56;;;;;;;0.97;0.43;;;9.40;99.90;;;;;;5072948;28;20810;-82
2023/10/27 03:02:23;;;;;;;0.30;0.30;;;9.40;99.90;;;;;;5072894;28;20449;-82
2023/10/27 03:04:51;;;;;;;1.23;0.83;;;9.40;99.90;;;;;;5072778;28;20468;-82
2023/10/27 03:07:19;;;;;;;0.60;0.50;;;9.30;99.90;;;;;;5072665;28;20495;-82
2023/10/27 03:09:46;;;;;;;0.43;0.43;;;9.30;99.90;;;;;;5072579;28;20429;-82
2023/10/27 03:12:14;;;;;;;0.70;0.50;;;9.30;99.90;;;;;;5072546;28;20449;-82
2023/10/27 03:14:40;;;;;;;0.50;0.50;;;9.40;99.90;;;;;;5072707;28;20476;-82
2023/10/27 03:17:07;;;;;;;0.40;0.40;;;9.30;99.90;;;;;;5072764;28;20786;-82
2023/10/27 03:19:34;;;;;;;0.40;0.40;;;9.30;99.90;;;;;;5072389;28;20443;-82
2023/10/27 03:22:02;;;;;;;0.40;0.30;;;9.30;99.90;;;;;;5072509;28;20828;-82
2023/10/27 03:24:30;;;;;;;0.50;0.47;;;9.30;99.90;;;;;;5072641;28;20471;-82
2023/10/27 03:26:57;;;;;;;0.50;0.37;;;9.30;99.90;;;;;;5072566;28;20440;-82
2023/10/27 03:29:24;;;;;;;0.77;0.77;;;9.30;99.90;;;;;;5072587;28;20445;-82
2023/10/27 03:31:50;;;;;;;0.60;0.60;;;9.20;99.90;;;;;;5072616;28;20443;-82
2023/10/27 03:34:17;;;;;;;0.40;0.30;;;9.10;99.90;;;;;;5072202;28;20468;-82
2023/10/27 03:36:44;;;;;;;1.23;0.90;;;9.20;99.90;;;;;;5075870;28;20447;-82
2023/10/27 03:39:12;;;;;;;0.70;0.50;;;9.10;99.90;;;;;;5076123;28;20444;-82
2023/10/27 03:41:40;;;;;;;0.30;0.30;;;9.10;99.90;;;;;;5075767;28;20957;-82
2023/10/27 03:44:07;;;;;;;0.40;0.40;;;9.10;99.90;;;;;;5075633;28;20465;-82
2023/10/27 03:46:34;;;;;;;5.23;0.57;;;9.10;99.90;;;;;;5075980;28;20444;-82
2023/10/27 03:49:01;;;;;;;0.40;0.40;;;9.10;99.90;;;;;;5075576;28;20997;-81
2023/10/27 03:51:28;;;;;;;0.60;0.60;;;9.10;99.90;;;;;;5075497;28;20476;-82
2023/10/27 03:53:55;;;;;;;0.40;0.40;;;9.10;99.90;;;;;;5075926;28;20462;-81
2023/10/27 03:56:22;;;;;;;0.30;0.30;;;9.10;99.90;;;;;;5075941;28;20448;-81
2023/10/27 03:58:50;;;;;;;0.60;0.60;;;9.10;99.90;;;;;;5075752;28;20471;-82
2023/10/27 04:01:17;;;;;;;0.40;0.40;;;9.10;99.90;;;;;;5075687;28;20444;-82
2023/10/27 04:03:44;;;;;;;0.60;0.40;;;9.10;99.90;;;;;;5075327;28;20961;-81
2023/10/27 04:06:11;;;;;;;0.30;0.30;;;9.10;99.90;;;;;;5075581;28;20452;-81
2023/10/27 04:08:38;;;;;;;0.30;0.30;;;9.20;99.90;;;;;;5075190;28;20993;-82
2023/10/27 04:11:05;;;;;;;2.00;0.40;;;9.30;99.90;;;;;;5075135;28;20950;-82
2023/10/27 04:13:32;;;;;;;0.50;0.50;;;9.30;99.90;;;;;;5075424;28;20464;-82
2023/10/27 04:16:00;;;;;;;0.50;0.50;;;9.20;99.90;;;;;;5075120;28;20437;-81
2023/10/27 04:18:27;;;;;;;0.60;0.40;;;9.20;99.90;;;;;;5075426;28;20437;-82
2023/10/27 04:20:53;;;;;;;0.67;0.40;;;9.30;99.90;;;;;;5075054;28;20449;-81
2023/10/27 04:23:20;;;;;;;0.37;0.30;;;9.20;99.90;;;;;;5075217;28;20461;-82
2023/10/27 04:25:48;;;;;;;0.40;0.30;;;9.20;99.90;;;;;;5075203;28;20448;-81
2023/10/27 04:28:15;;;;;;;0.30;0.30;;;9.20;99.90;;;;;;5075100;28;20520;-82
2023/10/27 04:30:42;;;;;;;0.50;0.30;;;9.30;99.90;;;;;;5075136;28;20447;-81
2023/10/27 04:33:10;;;;;;;0.57;0.40;;;9.30;99.90;;;;;;5075054;28;20465;-81
2023/10/27 04:35:37;;;;;;;0.40;0.30;;;9.20;99.90;;;;;;5075012;28;20494;-82
2023/10/27 04:38:04;;;;;;;0.80;0.40;;;9.30;99.90;;;;;;5074727;28;20441;-82
2023/10/27 04:40:34;;;;;;;0.67;0.50;;;9.30;99.90;;;;;;5074966;28;20440;-82
2023/10/27 04:43:01;;;;;;;0.40;0.30;;;9.30;99.90;;;;;;5074750;28;20461;-82
2023/10/27 04:45:28;;;;;;;7.30;0.50;;;9.30;99.90;;;;;;5074488;28;20449;-82
2023/10/27 04:47:55;;;;;;;0.40;0.40;;;9.30;99.90;;;;;;5073787;28;20483;-81
2023/10/27 04:50:23;;;;;;;0.40;0.30;;;9.30;99.90;;;;;;5074539;28;20481;-82
2023/10/27 04:52:50;;;;;;;0.40;0.30;;;9.30;99.90;;;;;;5074372;28;20960;-82
2023/10/27 04:55:18;;;;;;;0.33;0.33;;;9.40;99.90;;;;;;5074628;28;20436;-81
2023/10/27 04:57:45;;;;;;;0.40;0.30;;;9.30;99.90;;;;;;5074578;28;21009;-82
2023/10/27 05:00:13;;;;;;;0.40;0.40;;;9.30;99.90;;;;;;5074531;28;20444;-82
2023/10/27 05:02:55;;;;;;;0.40;0.40;;;9.40;99.90;;;;;;5111711;27;20603;-82
2023/10/27 05:05:22;;;;;;;0.40;0.33;;;9.40;99.90;;;;;;5111256;28;20443;-82
2023/10/27 05:07:49;;;;;;;0.60;0.30;;;9.40;99.90;;;;;;5111135;28;20431;-82
2023/10/27 05:10:16;;;;;;;0.30;0.30;;;9.40;99.90;;;;;;5111104;28;20443;-81
2023/10/27 05:12:43;;;;;;;0.40;0.33;;;9.40;99.90;;;;;;5111016;28;20450;-82
2023/10/27 05:15:10;;;;;;;0.30;0.30;;;9.40;99.90;;;;;;5111006;28;20466;-82
2023/10/27 05:17:37;;;;;;;0.30;0.30;;;9.40;99.90;;;;;;5110927;28;20443;-82
2023/10/27 05:20:06;;;;;;;0.40;0.40;;;9.40;99.90;;;;;;5110962;28;20462;-82
2023/10/27 05:22:33;;;;;;;0.40;0.30;;;9.50;99.90;;;;;;5110788;28;20478;-82
2023/10/27 05:25:03;;;;;;;0.70;0.30;;;9.50;99.90;;;;;;5110785;28;20467;-82
2023/10/27 05:27:30;;;;;;;0.70;0.70;;;9.40;99.90;;;;;;5110752;28;20493;-82
2023/10/27 05:29:57;;;;;;;0.30;0.30;;;9.50;99.90;;;;;;5110717;28;20450;-81
2023/10/27 05:32:23;;;;;;;0.40;0.30;;;9.40;99.90;;;;;;5110446;28;20443;-81
2023/10/27 05:34:50;;;;;;;0.40;0.40;;;9.50;99.90;;;;;;5110589;28;20826;-82
2023/10/27 05:37:19;;;;;;;0.30;0.30;;;9.40;99.90;;;;;;5110569;28;20832;-81
2023/10/27 05:39:45;;;;;;;0.43;0.43;;;9.50;99.90;;;;;;5110489;28;20443;-82
2023/10/27 05:42:12;;;;;;;0.40;0.30;;;9.50;99.90;;;;;;5110420;28;20479;-81
2023/10/27 05:44:41;;;;;;;0.40;0.40;;;9.50;99.90;;;;;;5110464;28;20463;-81
2023/10/27 05:47:07;;;;;;;0.50;0.30;;;9.60;99.90;;;;;;5110119;28;20447;-81
2023/10/27 05:49:34;;;;;;;0.90;0.50;;;9.60;99.90;;;;;;5110425;28;20458;-81
2023/10/27 05:52:03;;;;;;;0.37;0.30;;;9.60;99.90;;;;;;5110331;28;20436;-81
2023/10/27 05:54:31;;;;;;;0.30;0.30;;;9.50;99.90;;;;;;5109913;28;20881;-81
2023/10/27 05:56:59;;;;;;;2.83;0.50;;;9.60;99.90;;;;;;5109909;28;20932;-81
2023/10/27 05:59:25;;;;;;;0.50;0.47;;;9.60;99.90;;;;;;5110196;28;20451;-81
2023/10/27 06:01:54;;;;;;;0.37;0.37;;;9.50;99.90;;;;;;5109694;28;20495;-81
2023/10/27 06:04:21;;;;;;;0.70;0.40;;;9.60;99.90;;;;;;5109684;28;20976;-81
2023/10/27 06:06:47;;;;;;;0.67;0.43;;;9.50;99.90;;;;;;5110121;28;20439;-81
2023/10/27 06:09:14;;;;;;;0.40;0.40;;;9.40;99.90;;;;;;5109747;28;20788;-81
2023/10/27 06:11:42;;;;;;;0.40;0.37;;;9.50;99.90;;;;;;5109943;28;20439;-82
2023/10/27 06:14:09;;;;;;;1.20;1.10;;;9.40;99.90;;;;;;5096877;28;20471;-82
2023/10/27 06:16:36;;;;;;;1.80;0.40;;;9.40;99.90;;;;;;5095975;28;20444;-81
2023/10/27 06:19:03;;;;;;;0.40;0.33;;;9.40;99.90;;;;;;5096286;28;20451;-82
2023/10/27 06:21:30;;;;;;;0.50;0.40;;;9.40;99.90;;;;;;5096082;28;20568;-82
2023/10/27 06:23:57;;;;;;;0.40;0.40;;;9.50;99.90;;;;;;5096072;28;20852;-81
2023/10/27 06:26:24;;;;;;;0.40;0.30;;;9.50;99.90;;;;;;5095755;28;20451;-81
2023/10/27 06:28:53;;;;;;;0.30;0.30;;;9.50;99.90;;;;;;5096083;28;20448;-82
2023/10/27 06:31:20;;;;;;;0.30;0.20;;;9.40;99.90;;;;;;5095672;28;20964;-82
2023/10/27 06:33:47;;;;;;;0.40;0.37;;;9.40;99.90;;;;;;5095615;28;20471;-82
2023/10/27 06:36:14;;;;;;;0.30;0.30;;;9.50;99.90;;;;;;5095903;28;20447;-82
2023/10/27 06:38:41;;;;;;;0.47;0.47;;;9.50;99.90;;;;;;5095887;28;20453;-82
2023/10/27 06:41:08;;;;;;;0.50;0.30;;;9.60;99.90;;;;;;5096242;28;20543;-82
2023/10/27 06:43:35;;;;;;;0.50;0.40;;;9.70;99.90;;;;;;5095780;28;20815;-82
2023/10/27 06:46:03;;;;;;;0.50;0.30;;;9.60;99.90;;;;;;5095720;28;20450;-81
2023/10/27 06:48:30;;;;;;;0.60;0.37;;;9.70;99.90;;;;;;5095336;28;20455;-81
2023/10/27 06:50:57;;;;;;;0.30;0.30;;;9.70;99.90;;;;;;5095701;28;20471;-81
2023/10/27 06:53:23;;;;;;;0.50;0.50;;;9.70;99.90;;;;;;5095196;28;20829;-81
2023/10/27 06:55:50;;;;;;;1.30;0.40;;;9.60;99.90;;;;;;5095594;28;20447;-82
2023/10/27 06:58:17;;;;;;;0.30;0.30;;;9.60;99.90;;;;;;5095178;28;20448;-81
2023/10/27 07:00:44;;;;;;;0.30;0.30;;;9.60;99.90;;;;;;5094970;28;20428;-81
2023/10/27 07:03:12;;;;;;;0.40;0.30;;;9.70;99.90;;;;;;5094938;28;20488;-81
2023/10/27 07:05:41;;;;;;;0.30;0.30;;;9.60;99.90;;;;;;5095272;28;20436;-81
2023/10/27 07:08:09;;;;;;;0.30;0.20;;;9.70;99.90;;;;;;5095317;28;20447;-81
2023/10/27 07:10:36;;;;;;;0.37;0.30;;;9.70;99.90;;;;;;5095171;28;20527;-81
2023/10/27 07:13:03;;;;;;;1.03;0.43;;;9.80;99.90;;;;;;5094739;28;20802;-81
2023/10/27 07:15:30;;;;;;;0.30;0.30;;;9.80;99.90;;;;;;5094694;28;20908;-81
2023/10/27 07:17:56;;;;;;;0.30;0.30;;;9.90;99.90;;;;;;5094900;28;20444;-81
2023/10/27 07:20:26;;;;;;;0.40;0.30;;;9.80;99.90;;;;;;5094746;28;20440;-81
2023/10/27 07:22:52;;;;;;;0.33;0.30;;;9.90;99.90;;;;;;5094874;28;20484;-81
2023/10/27 07:25:19;;;;;;;0.40;0.30;;;10.00;99.90;;;;;;5093985;28;20455;-81
2023/10/27 07:27:46;;;;;;;0.30;0.30;;;10.00;99.90;;;;;;5094895;28;20483;-81
2023/10/27 07:30:14;;;;;;;0.40;0.30;;;10.00;99.90;;;;;;5094543;28;20440;-81
2023/10/27 07:32:40;;;;;;;0.50;0.40;;;10.00;99.90;;;;;;5094712;28;20439;-81
2023/10/27 07:35:08;;;;;;;0.30;0.30;;;10.00;99.90;;;;;;5094801;28;20446;-81
2023/10/27 07:37:36;;;;;;;0.30;0.30;;;10.00;99.90;;;;;;5094721;28;20483;-82
2023/10/27 07:40:03;;;;;;;0.33;0.33;;;10.00;99.90;;;;;;5094692;28;20439;-81
2023/10/27 07:42:31;;;;;;;0.30;0.20;;;10.00;99.90;;;;;;5094598;28;20495;-81
2023/10/27 07:44:58;;;;;;;0.40;0.37;;;10.00;99.90;;;;;;5094505;28;20471;-81
2023/10/27 07:47:25;;;;;;;0.30;0.30;;;9.90;99.90;;;;;;5094549;28;20448;-81
2023/10/27 07:49:53;;;;;;;0.87;0.53;;;9.90;99.90;;;;;;5094532;28;20453;-81
2023/10/27 07:52:20;;;;;;;0.30;0.30;;;9.80;99.90;;;;;;5094436;28;20498;-82
2023/10/27 07:54:48;;;;;;;0.30;0.23;;;9.80;99.90;;;;;;5094123;28;20452;-81
2023/10/27 07:57:15;;;;;;;0.40;0.30;;;9.90;99.90;;;;;;5094146;28;20825;-81
2023/10/27 07:59:42;;;;;;;0.50;0.30;;;9.90;99.90;;;;;;5094360;28;20448;-82
2023/10/27 08:02:09;;;;;;;0.30;0.30;;;9.90;99.90;;;;;;5093634;28;21000;-81
2023/10/27 08:04:37;;;;;;;0.30;0.30;;;9.90;99.90;;;;;;5094040;28;20471;-82
2023/10/27 08:07:04;;;;;;;0.40;0.40;;;10.00;99.90;;;;;;5094157;28;20452;-81
2023/10/27 08:09:31;;;;;;;0.30;0.20;;;10.10;99.90;;;;;;5094220;28;20452;-82
2023/10/27 08:11:59;;;;;;;0.30;0.30;;;10.10;99.90;;;;;;5094088;28;20463;-82
2023/10/27 08:14:26;;;;;;;0.30;0.20;;;10.10;99.90;;;;;;5094246;28;20451;-82
2023/10/27 08:16:52;;;;;;;0.30;0.30;;;10.10;99.90;;;;;;5093971;28;20439;-82
2023/10/27 08:19:19;;;;;;;0.57;0.33;;;10.00;99.90;;;;;;5094002;28;20475;-81
2023/10/27 08:21:48;;;;;;;0.30;0.30;;;10.10;99.90;;;;;;5093853;28;20810;-82
2023/10/27 08:24:16;;;;;;;0.30;0.30;;;10.00;99.90;;;;;;5093534;28;20479;-82
2023/10/27 08:26:43;;;;;;;0.30;0.30;;;10.00;99.90;;;;;;5093872;28;20448;-81
2023/10/27 08:29:11;;;;;;;0.30;0.20;;;10.00;99.90;;;;;;5093844;28;20448;-81
2023/10/27 08:31:38;;;;;;;0.30;0.30;;;10.10;99.90;;;;;;5093769;28;20451;-81
2023/10/27 08:34:06;;;;;;;0.40;0.30;;;10.20;99.90;;;;;;5093445;28;20998;-81
2023/10/27 08:36:33;;;;;;;0.50;0.30;;;10.20;99.90;;;;;;5093499;28;20448;-81
2023/10/27 08:39:00;;;;;;;0.30;0.30;;;10.10;99.90;;;;;;5093705;28;20451;-81
2023/10/27 08:41:28;;;;;;;0.30;0.20;;;10.10;99.90;;;;;;5093382;28;20861;-81
2023/10/27 08:43:55;;;;;;;0.40;0.30;;;10.10;99.90;;;;;;5093486;28;20484;-81
2023/10/27 08:46:24;;;;;;;0.30;0.30;;;10.10;99.90;;;;;;5093615;28;20447;-80
2023/10/27 08:48:51;;;;;;;0.30;0.30;;;10.00;99.90;;;;;;5093621;28;20424;-80
2023/10/27 08:51:20;;;;;;;0.30;0.20;;;10.10;99.90;;;;;;5093214;28;20459;-80
2023/10/27 08:53:47;;;;;;;0.83;0.30;;;10.10;99.90;;;;;;5094027;28;20456;-80
2023/10/27 08:56:15;;;;;;;0.30;0.30;;;10.00;99.90;;;;;;5093153;28;20979;-80
2023/10/27 08:58:48;;;;;;;0.30;0.30;;;10.10;99.90;;;;;;5093506;28;20428;-80
2023/10/27 09:01:15;;;;;;;0.30;0.20;;;10.10;99.90;;;;;;5092999;28;20839;-80
2023/10/27 09:04:04;;;;;;;0.30;0.30;;;10.20;99.90;;;;;;5092962;28;20492;-80
2023/10/27 09:06:30;;;;;;;0.30;0.30;;;10.10;99.90;;;;;;5093375;28;20420;-80
2023/10/27 09:08:57;;;;;;;0.30;0.20;;;10.10;99.90;;;;;;5093065;28;20945;-78
2023/10/27 09:11:24;;;;;;;0.37;0.30;;;10.20;99.90;;;;;;5093012;28;20937;-80
2023/10/27 09:13:51;;;;;;;0.30;0.30;;;10.20;99.90;;;;;;5092915;28;20463;-80
2023/10/27 09:16:25;;;;;;;0.40;0.37;;;10.20;99.90;;;;;;5092962;28;20440;-80
2023/10/27 09:18:55;;;;;;;0.30;0.30;;;10.30;99.90;;;;;;5093005;28;20425;-79
2023/10/27 09:21:32;;;;;;;0.30;0.30;;;10.40;99.90;;;;;;5092870;28;20440;-80
2023/10/27 09:23:59;;;;;;;0.80;0.80;;;10.40;99.90;;;;;;5093071;28;20688;-80
2023/10/27 09:26:29;;;;;;;0.30;0.30;;;10.40;99.90;;;;;;5093189;28;20800;-80
2023/10/27 09:29:03;;;;;;;0.30;0.30;;;10.40;99.90;;;;;;5092866;28;20933;-80
2023/10/27 09:31:33;;;;;;;0.30;0.23;;;10.50;99.90;;;;;;5093124;28;20746;-80
2023/10/27 09:34:17;;;;;;;0.40;0.30;;;10.50;99.90;;;;;;5092744;28;20509;-80
2023/10/27 09:36:46;;;;;;;0.40;0.30;;;10.60;99.90;;;;;;5092784;28;20428;-80
2023/10/27 09:39:16;;;;;;;0.30;0.30;;;10.70;99.90;;;;;;5092792;28;20436;-80
2023/10/27 09:41:45;;;;;;;0.30;0.30;;;10.70;99.90;;;;;;5092771;28;20440;-80
2023/10/27 09:44:15;;;;;;;0.30;0.30;;;10.70;99.90;;;;;;5092547;28;20487;-80
2023/10/27 09:46:51;;;;;;;0.40;0.30;;;10.70;99.90;;;;;;5092692;28;20442;-80
2023/10/27 09:49:32;;;;;;;0.40;0.33;;;10.80;99.90;;;;;;5095756;28;20924;-80
2023/10/27 09:52:01;;;;;;;0.30;0.30;;;10.80;99.90;;;;;;5096478;28;20431;-80
2023/10/27 09:54:31;;;;;;;0.37;0.30;;;10.90;99.90;;;;;;5096688;28;20557;-80
2023/10/27 09:57:00;;;;;;;0.30;0.30;;;11.20;99.90;;;;;;5096756;28;20470;-80
2023/10/27 09:59:30;;;;;;;0.30;0.30;;;11.30;99.90;;;;;;5096341;28;20496;-80
2023/10/27 10:01:59;;;;;;;0.43;0.37;;;11.30;99.90;;;;;;5096093;28;20484;-80
2023/10/27 10:05:00;;;;;;;2.53;0.30;;;11.30;99.90;;;;;;5096187;28;20911;-80
2023/10/27 10:07:31;;;;;;;0.40;0.40;;;11.30;99.90;;;;;;5096534;28;20816;-80
2023/10/27 10:09:58;;;;;;;0.30;0.30;;;11.50;99.90;;;;;;5096178;28;20429;-80
2023/10/27 10:12:25;;;;;;;0.30;0.30;;;11.70;99.90;;;;;;5097108;28;20756;-80
2023/10/27 10:14:52;;;;;;;0.50;0.40;;;11.90;99.90;;;;;;5095987;28;20456;-80
2023/10/27 10:17:38;;;;;;;0.30;0.30;;;12.10;99.90;;;;;;5096298;28;20447;-80
2023/10/27 10:20:09;;;;;;;2.00;1.03;;;12.30;99.90;;;;;;5096316;28;20511;-80
2023/10/27 10:22:55;;;;;;;0.40;0.40;;;12.30;99.90;;;;;;5095871;28;20592;-80
2023/10/27 10:25:31;;;;;;;4.27;0.50;;;12.30;99.90;;;;;;5095810;28;20924;-80
2023/10/27 10:28:27;;;;;;;0.40;0.30;;;12.50;99.90;;;;;;5095882;28;20557;-80
2023/10/27 10:31:31;;;;;;;0.63;0.40;;;12.70;99.90;;;;;;5096125;28;20882;-80
2023/10/27 10:34:11;;;;;;;0.40;0.40;;;12.70;99.90;;;;;;5095655;28;20459;-80
2023/10/27 10:36:40;;;;;;;0.40;0.30;;;12.70;99.90;;;;;;5095976;28;20793;-79
2023/10/27 10:39:10;;;;;;;0.40;0.30;;;12.70;99.90;;;;;;5095873;28;20497;-80
2023/10/27 10:41:59;;;;;;;0.60;0.50;;;12.60;99.90;;;;;;5095829;28;20459;-80
2023/10/27 10:44:31;;;;;;;0.40;0.40;;;12.50;99.90;;;;;;5095692;28;20864;-80
2023/10/27 10:47:00;;;;;;;1.73;0.40;;;12.50;99.90;;;;;;5095495;28;20905;-80
2023/10/27 10:49:30;;;;;;;0.30;0.30;;;12.60;99.90;;;;;;5095346;28;20976;-80
2023/10/27 10:51:59;;;;;;;1.23;0.40;;;12.70;99.90;;;;;;5095579;28;20448;-80
2023/10/27 10:54:28;;;;;;;0.37;0.37;;;12.80;99.90;;;;;;5095502;28;20478;-80
2023/10/27 10:57:03;;;;;;;1.43;0.50;;;12.90;99.90;;;;;;5095260;28;21043;-80
2023/10/27 10:59:30;;;;;;;0.40;0.30;;;13.00;99.90;;;;;;5095424;28;20486;-80
2023/10/27 11:01:57;;;;;;;1.03;0.43;;;13.00;99.90;;;;;;5094919;28;20482;-80
2023/10/27 11:04:31;;;;;;;0.30;0.30;;;12.90;99.90;;;;;;5094932;28;20490;-80
2023/10/27 11:07:02;;;;;;;1.90;0.40;;;12.90;99.90;;;;;;5094984;28;20450;-80
2023/10/27 11:09:31;;;;;;;0.50;0.40;;;12.90;99.90;;;;;;5095331;28;20776;-81
2023/10/27 11:11:58;;;;;;;2.40;0.60;;;12.90;99.90;;;;;;5095229;28;20451;-80
2023/10/27 11:14:25;;;;;;;0.40;0.40;;;12.70;99.90;;;;;;5095147;28;20474;-80
2023/10/27 11:16:59;;;;;;;0.43;0.43;;;12.80;99.90;;;;;;5094818;28;20446;-80
2023/10/27 11:19:26;;;;;;;0.40;0.40;;;12.70;99.90;;;;;;5094764;28;20443;-82
2023/10/27 11:21:54;;;;;;;1.53;0.50;;;12.80;99.90;;;;;;5094723;28;20813;-80
2023/10/27 11:24:23;;;;;;;0.40;0.37;;;12.80;99.90;;;;;;5094650;28;20484;-81
2023/10/27 11:26:51;;;;;;;3.33;0.60;;;12.80;99.90;;;;;;5094797;28;20496;-81
2023/10/27 11:29:18;;;;;;;0.47;0.40;;;13.00;99.90;;;;;;5094603;28;20444;-81
2023/10/27 11:31:47;;;;;;;2.57;0.50;;;12.90;99.90;;;;;;5094828;28;20448;-81
2023/10/27 11:34:16;;;;;;;0.40;0.30;;;13.00;99.90;;;;;;5094431;28;20463;-80
2023/10/27 11:36:44;;;;;;;0.40;0.40;;;13.00;99.90;;;;;;5094721;28;20512;-80
2023/10/27 11:39:15;;;;;;;3.23;0.40;;;12.80;99.90;;;;;;5094703;28;20444;-81
2023/10/27 11:41:44;;;;;;;0.40;0.30;;;12.80;99.90;;;;;;5094399;28;20933;-81
2023/10/27 11:44:11;;;;;;;0.60;0.60;;;12.70;99.90;;;;;;5094127;28;20488;-80
2023/10/27 11:46:37;;;;;;;0.60;0.40;;;12.70;99.90;;;;;;5094267;28;20442;-81
2023/10/27 11:49:04;;;;;;;1.03;0.40;;;12.60;99.90;;;;;;5094252;28;20439;-81
2023/10/27 11:51:31;;;;;;;0.37;0.30;;;12.50;99.90;;;;;;5094146;28;20443;-80
2023/10/27 11:53:58;;;;;;;0.30;0.30;;;12.60;99.90;;;;;;5094062;28;20456;-81
2023/10/27 11:56:25;;;;;;;1.67;0.40;;;12.60;99.90;;;;;;5094047;28;20489;-80
2023/10/27 11:58:53;;;;;;;0.40;0.40;;;12.50;99.90;;;;;;5094030;28;20971;-81
2023/10/27 12:01:20;;;;;;;0.30;0.30;;;12.50;99.90;;;;;;5093805;28;20487;-80
2023/10/27 12:03:47;;;;;;;1.77;0.50;;;12.40;99.90;;;;;;5093803;28;20483;-81
2023/10/27 12:06:14;;;;;;;1.50;0.47;;;12.30;99.90;;;;;;5094218;28;20428;-80
2023/10/27 12:08:41;;;;;;;0.80;0.73;;;12.30;99.90;;;;;;5094190;28;20450;-81
2023/10/27 12:11:08;;;;;;;2.60;0.30;;;12.20;99.90;;;;;;5093645;28;20444;-81
2023/10/27 12:13:34;;;;;;;0.43;0.37;;;12.20;99.90;;;;;;5094025;28;20829;-81
2023/10/27 12:16:03;;;;;;;0.40;0.30;;;12.20;99.90;;;;;;5093765;28;20444;-80
2023/10/27 12:18:32;;;;;;;0.30;0.30;;;12.20;99.90;;;;;;5094046;28;20782;-80
2023/10/27 12:21:01;;;;;;;0.60;0.60;;;12.30;99.90;;;;;;5093947;28;20468;-80
2023/10/27 12:23:29;;;;;;;0.80;0.40;;;12.30;99.90;;;;;;5093821;28;20488;-80
2023/10/27 12:25:57;;;;;;;2.87;0.40;;;12.30;99.90;;;;;;5093619;28;20998;-80
2023/10/27 12:28:24;;;;;;;0.40;0.30;;;12.40;99.90;;;;;;5093464;28;20813;-81
2023/10/27 12:30:50;;;;;;;1.60;0.70;;;12.50;99.90;;;;;;5093615;28;20962;-80
2023/10/27 12:33:19;;;;;;;0.40;0.30;;;12.60;99.90;;;;;;5093421;28;20455;-80
2023/10/27 12:35:48;;;;;;;0.40;0.30;;;12.60;99.90;;;;;;5093368;28;20535;-80
2023/10/27 12:38:16;;;;;;;0.30;0.30;;;12.60;99.90;;;;;;5093694;28;20541;-80
2023/10/27 12:40:44;;;;;;;0.30;0.30;;;12.60;99.90;;;;;;5093374;28;20941;-81
2023/10/27 12:43:11;;;;;;;1.87;0.50;;;12.60;99.90;;;;;;5093428;28;20488;-81
2023/10/27 12:45:38;;;;;;;0.30;0.30;;;12.50;99.90;;;;;;5093558;28;20454;-80
2023/10/27 12:48:06;;;;;;;1.53;0.40;;;12.50;99.90;;;;;;5093567;28;20440;-80
2023/10/27 12:50:35;;;;;;;0.40;0.30;;;12.50;99.90;;;;;;5093489;28;20440;-80
2023/10/27 12:53:02;;;;;;;0.37;0.37;;;12.50;99.90;;;;;;5093428;28;20509;-81
2023/10/27 12:55:29;;;;;;;7.10;0.40;;;12.30;99.90;;;;;;5093505;28;20435;-81
2023/10/27 12:57:58;;;;;;;0.40;0.40;;;12.20;99.90;;;;;;5093461;28;20448;-81